createdAt,value
2022-08-29T00:01:33.017Z,101670.06
2022-08-29T00:04:01.433Z,101669.09
2022-08-29T00:06:30.038Z,101681.78
2022-08-29T00:08:58.125Z,101681.22
2022-08-29T00:11:26.167Z,101682.56
2022-08-29T00:13:54.277Z,101685.19
2022-08-29T00:16:22.387Z,101679.94
2022-08-29T00:18:51.870Z,101683.06
2022-08-29T00:21:20.037Z,101680.72
2022-08-29T00:23:48.112Z,101672.50
2022-08-29T00:26:16.269Z,101672.69
2022-08-29T00:28:44.293Z,101669.72
2022-08-29T00:31:12.428Z,101689.28
2022-08-29T00:33:40.715Z,101689.53
2022-08-29T00:36:11.443Z,101681.69
2022-08-29T00:38:39.513Z,101686.84
2022-08-29T00:41:09.926Z,101685.41
2022-08-29T00:43:39.161Z,101684.28
2022-08-29T00:46:19.317Z,101695.09
2022-08-29T00:48:51.722Z,101690.38
2022-08-29T00:51:24.379Z,101687.53
2022-08-29T00:53:55.695Z,101688.31
2022-08-29T00:56:23.856Z,101681.72
2022-08-29T00:58:54.723Z,101686.13
2022-08-29T01:01:24.119Z,101690.59
2022-08-29T01:03:52.588Z,101692.06
2022-08-29T01:06:21.746Z,101693.63
2022-08-29T01:08:57.307Z,101704.09
2022-08-29T01:11:44.243Z,101705.97
2022-08-29T01:14:12.337Z,101698.06
2022-08-29T01:16:40.893Z,101692.00
2022-08-29T01:19:15.375Z,101692.00
2022-08-29T01:21:50.594Z,101684.34
2022-08-29T01:24:38.884Z,101693.94
2022-08-29T01:27:07.168Z,101695.84
2022-08-29T01:29:36.155Z,101696.53
2022-08-29T01:32:05.075Z,101692.47
2022-08-29T01:34:33.202Z,101691.38
2022-08-29T01:37:02.974Z,101695.41
2022-08-29T01:39:33.058Z,101694.78
2022-08-29T01:42:05.083Z,101698.78
2022-08-29T01:44:33.166Z,101689.22
2022-08-29T01:47:03.262Z,101699.97
2022-08-29T01:49:32.974Z,101694.13
2022-08-29T01:52:01.934Z,101691.16
2022-08-29T01:54:30.925Z,101700.97
2022-08-29T01:56:58.913Z,101703.00
2022-08-29T01:59:30.500Z,101697.81
2022-08-29T02:02:02.723Z,101694.19
2022-08-29T02:04:31.269Z,101693.94
2022-08-29T02:06:59.603Z,101699.94
2022-08-29T02:09:28.859Z,101710.28
2022-08-29T02:11:58.273Z,101703.72
2022-08-29T02:14:26.438Z,101697.44
2022-08-29T02:16:55.991Z,101700.19
2022-08-29T02:19:24.114Z,101695.84
2022-08-29T02:21:52.517Z,101700.69
2022-08-29T02:24:25.724Z,101695.88
2022-08-29T02:26:54.519Z,101697.53
2022-08-29T02:29:23.150Z,101692.31
2022-08-29T02:31:51.425Z,101696.34
2022-08-29T02:34:21.188Z,101688.13
2022-08-29T02:36:49.420Z,101690.06
2022-08-29T02:39:18.189Z,101693.34
2022-08-29T02:41:46.341Z,101686.88
2022-08-29T02:44:14.457Z,101693.28
2022-08-29T02:46:42.537Z,101696.50
2022-08-29T02:49:10.648Z,101700.16
2022-08-29T02:51:39.996Z,101702.22
2022-08-29T02:54:08.042Z,101689.72
2022-08-29T02:56:36.831Z,101697.25
2022-08-29T02:59:05.036Z,101693.22
2022-08-29T03:01:33.368Z,101689.72
2022-08-29T03:04:02.298Z,101692.94
2022-08-29T03:06:30.265Z,101693.16
2022-08-29T03:08:59.591Z,101683.03
2022-08-29T03:11:28.733Z,101684.84
2022-08-29T03:13:57.680Z,101687.97
2022-08-29T03:16:26.723Z,101687.44
2022-08-29T03:18:54.772Z,101682.78
2022-08-29T03:21:25.169Z,101685.72
2022-08-29T03:23:53.702Z,101686.38
2022-08-29T03:26:23.721Z,101693.41
2022-08-29T03:28:51.771Z,101696.81
2022-08-29T03:31:19.901Z,101693.16
2022-08-29T03:33:48.156Z,101687.94
2022-08-29T03:36:16.192Z,101689.91
2022-08-29T03:38:46.454Z,101690.59
2022-08-29T03:41:23.346Z,101691.19
2022-08-29T03:43:51.465Z,101691.28
2022-08-29T03:46:20.056Z,101683.69
2022-08-29T03:48:48.512Z,101678.25
2022-08-29T03:51:16.989Z,101677.84
2022-08-29T03:53:45.778Z,101688.16
2022-08-29T03:56:18.172Z,101692.44
2022-08-29T03:58:52.829Z,101686.28
2022-08-29T04:01:22.839Z,101693.34
2022-08-29T04:03:51.647Z,101699.19
2022-08-29T04:06:20.204Z,101692.16
2022-08-29T04:08:49.084Z,101697.16
2022-08-29T04:11:19.954Z,101679.97
2022-08-29T04:13:49.911Z,101691.38
2022-08-29T04:16:22.648Z,101698.63
2022-08-29T04:18:51.176Z,101698.22
2022-08-29T04:21:19.994Z,101707.34
2022-08-29T04:23:48.552Z,101709.44
2022-08-29T04:26:35.796Z,101712.94
2022-08-29T04:29:06.484Z,101711.50
2022-08-29T04:31:34.717Z,101719.97
2022-08-29T04:34:02.854Z,101718.03
2022-08-29T04:36:31.210Z,101712.00
2022-08-29T04:38:59.387Z,101717.44
2022-08-29T04:41:27.641Z,101732.00
2022-08-29T04:43:56.188Z,101716.81
2022-08-29T04:46:26.011Z,101734.44
2022-08-29T04:48:54.652Z,101733.22
2022-08-29T04:51:23.673Z,101734.75
2022-08-29T04:53:53.421Z,101719.53
2022-08-29T04:56:22.805Z,101733.94
2022-08-29T04:58:52.188Z,101735.72
2022-08-29T05:01:22.268Z,101744.06
2022-08-29T05:03:54.447Z,101732.59
2022-08-29T05:06:24.359Z,101751.81
2022-08-29T05:08:59.353Z,101746.75
2022-08-29T05:11:29.955Z,101754.56
2022-08-29T05:13:58.507Z,101748.13
2022-08-29T05:16:26.879Z,101757.31
2022-08-29T05:18:56.436Z,101764.16
2022-08-29T05:21:28.483Z,101760.13
2022-08-29T05:23:57.491Z,101768.97
2022-08-29T05:26:26.250Z,101756.81
2022-08-29T05:28:54.273Z,101769.06
2022-08-29T05:31:22.707Z,101759.13
2022-08-29T05:33:51.076Z,101764.28
2022-08-29T05:36:21.030Z,101764.31
2022-08-29T05:38:49.496Z,101762.84
2022-08-29T05:41:19.266Z,101763.72
2022-08-29T05:43:47.433Z,101765.91
2022-08-29T05:46:15.648Z,101777.47
2022-08-29T05:48:48.581Z,101780.91
2022-08-29T05:51:18.866Z,101771.03
2022-08-29T05:53:48.577Z,101779.84
2022-08-29T05:56:23.846Z,101789.28
2022-08-29T05:58:52.129Z,101786.00
2022-08-29T06:01:25.900Z,101784.19
2022-08-29T06:03:55.089Z,101777.47
2022-08-29T06:06:26.004Z,101781.44
2022-08-29T06:08:56.681Z,101776.41
2022-08-29T06:11:27.116Z,101785.47
2022-08-29T06:13:55.860Z,101794.69
2022-08-29T06:16:25.957Z,101776.34
2022-08-29T06:18:54.695Z,101790.47
2022-08-29T06:21:23.804Z,101777.53
2022-08-29T06:23:52.182Z,101782.84
2022-08-29T06:26:21.912Z,101787.16
2022-08-29T06:28:50.207Z,101794.00
2022-08-29T06:31:22.534Z,101814.25
2022-08-29T06:33:52.632Z,101797.94
2022-08-29T06:36:21.201Z,101805.31
2022-08-29T06:38:49.595Z,101813.38
2022-08-29T06:41:19.912Z,101794.00
2022-08-29T06:43:49.756Z,101798.13
2022-08-29T06:46:23.740Z,101799.69
2022-08-29T06:48:52.345Z,101807.91
2022-08-29T06:51:20.648Z,101814.81
2022-08-29T06:53:49.102Z,101811.28
2022-08-29T06:56:17.730Z,101828.25
2022-08-29T06:58:46.514Z,101828.25
2022-08-29T07:01:18.564Z,101825.28
2022-08-29T07:03:49.107Z,101830.53
2022-08-29T07:06:20.810Z,101826.63
2022-08-29T07:08:55.910Z,101833.78
2022-08-29T07:11:25.214Z,101829.25
2022-08-29T07:13:54.630Z,101830.03
2022-08-29T07:16:24.306Z,101834.25
2022-08-29T07:18:54.822Z,101830.38
2022-08-29T07:21:28.453Z,101829.16
2022-08-29T07:23:58.698Z,101824.84
2022-08-29T07:26:29.996Z,101826.38
2022-08-29T07:29:00.632Z,101834.78
2022-08-29T07:31:33.674Z,101838.00
2022-08-29T07:34:03.020Z,101846.94
2022-08-29T07:36:34.278Z,101847.13
2022-08-29T07:39:04.104Z,101841.13
2022-08-29T07:41:34.181Z,101842.25
2022-08-29T07:44:07.237Z,101827.13
2022-08-29T07:46:37.260Z,101839.50
2022-08-29T07:49:07.558Z,101836.34
2022-08-29T07:51:36.527Z,101838.84
2022-08-29T07:54:04.956Z,101829.47
2022-08-29T07:56:38.064Z,101842.38
2022-08-29T07:59:07.264Z,101829.91
2022-08-29T08:01:37.381Z,101827.03
2022-08-29T08:04:06.238Z,101837.88
2022-08-29T08:06:37.018Z,101841.97
2022-08-29T08:09:07.237Z,101830.59
2022-08-29T08:11:36.440Z,101835.06
2022-08-29T08:14:05.832Z,101844.34
2022-08-29T08:16:37.656Z,101845.84
2022-08-29T08:19:06.615Z,101841.75
2022-08-29T08:21:34.706Z,101849.88
2022-08-29T08:24:03.716Z,101844.38
2022-08-29T08:26:43.645Z,101842.47
2022-08-29T08:29:12.896Z,101837.53
2022-08-29T08:31:45.504Z,101858.34
2022-08-29T08:34:16.605Z,101858.13
2022-08-29T08:36:55.841Z,101853.44
2022-08-29T08:39:27.807Z,101851.47
2022-08-29T08:41:59.616Z,101851.03
2022-08-29T08:44:45.383Z,101854.25
2022-08-29T08:47:16.140Z,101864.41
2022-08-29T08:49:50.332Z,101861.78
2022-08-29T08:52:21.052Z,101864.69
2022-08-29T08:54:55.376Z,101859.53
2022-08-29T08:57:27.665Z,101859.19
2022-08-29T09:00:00.583Z,101871.94
2022-08-29T09:02:36.759Z,101864.13
2022-08-29T09:05:20.146Z,101862.13
2022-08-29T09:07:53.073Z,101871.06
2022-08-29T09:10:29.090Z,101871.16
2022-08-29T09:13:02.495Z,101863.84
2022-08-29T09:15:34.690Z,101865.34
2022-08-29T09:18:08.156Z,101867.41
2022-08-29T09:20:40.059Z,101872.66
2022-08-29T09:23:14.411Z,101859.22
2022-08-29T09:25:42.783Z,101871.50
2022-08-29T09:28:11.260Z,101857.81
2022-08-29T09:30:46.651Z,101863.34
2022-08-29T09:33:17.680Z,101859.78
2022-08-29T09:35:49.205Z,101873.81
2022-08-29T09:38:26.356Z,101884.56
2022-08-29T09:40:58.218Z,101874.16
2022-08-29T09:43:32.121Z,101882.03
2022-08-29T09:46:09.578Z,101878.31
2022-08-29T09:48:41.785Z,101880.53
2022-08-29T09:51:16.926Z,101881.19
2022-08-29T09:53:47.227Z,101882.22
2022-08-29T09:56:19.477Z,101885.22
2022-08-29T09:58:59.526Z,101880.31
2022-08-29T10:01:28.595Z,101890.81
2022-08-29T10:04:01.355Z,101892.38
2022-08-29T10:06:32.220Z,101888.06
2022-08-29T10:09:04.379Z,101880.94
2022-08-29T10:11:38.529Z,101875.13
2022-08-29T10:14:12.594Z,101884.31
2022-08-29T10:16:47.665Z,101882.22
2022-08-29T10:19:19.494Z,101893.53
2022-08-29T10:22:00.207Z,101885.91
2022-08-29T10:24:37.913Z,101900.06
2022-08-29T10:27:15.891Z,101906.91
2022-08-29T10:30:09.656Z,101905.91
2022-08-29T10:33:04.909Z,101903.81
2022-08-29T10:35:39.201Z,101909.63
2022-08-29T10:38:13.332Z,101903.31
2022-08-29T10:40:43.774Z,101911.28
2022-08-29T10:43:30.824Z,101918.03
2022-08-29T10:46:08.167Z,101912.84
2022-08-29T10:48:39.504Z,101899.81
2022-08-29T10:51:17.724Z,101907.00
2022-08-29T10:53:49.161Z,101903.19
2022-08-29T10:56:23.977Z,101903.50
2022-08-29T10:59:04.001Z,101906.31
2022-08-29T11:01:35.765Z,101907.19
2022-08-29T11:04:17.497Z,101898.03
2022-08-29T11:06:51.650Z,101907.84
2022-08-29T11:09:24.102Z,101905.59
2022-08-29T11:12:06.683Z,101895.56
2022-08-29T11:14:38.182Z,101904.38
2022-08-29T11:17:14.059Z,101896.19
2022-08-29T11:19:59.087Z,101900.41
2022-08-29T11:22:36.422Z,101902.50
2022-08-29T11:25:12.105Z,101912.81
2022-08-29T11:27:47.826Z,101913.09
2022-08-29T11:30:26.099Z,101912.84
2022-08-29T11:33:04.940Z,101906.84
2022-08-29T11:35:40.515Z,101920.50
2022-08-29T11:38:59.768Z,101926.44
2022-08-29T11:41:30.449Z,101928.09
2022-08-29T11:44:09.181Z,101921.75
2022-08-29T11:46:53.461Z,101920.31
2022-08-29T11:49:39.935Z,101924.19
2022-08-29T11:52:29.097Z,101939.00
2022-08-29T11:55:35.936Z,101936.75
2022-08-29T11:58:11.857Z,101939.00
2022-08-29T12:00:48.055Z,101930.88
2022-08-29T12:03:46.252Z,101928.56
2022-08-29T12:06:33.010Z,101943.34
2022-08-29T12:09:13.139Z,101937.59
2022-08-29T12:12:18.643Z,101944.13
2022-08-29T12:14:48.318Z,101927.91
2022-08-29T12:18:02.131Z,101935.13
2022-08-29T12:20:42.137Z,101939.09
2022-08-29T12:23:21.455Z,101944.41
2022-08-29T12:28:58.593Z,101947.50
2022-08-29T12:31:51.721Z,101950.03
2022-08-29T12:34:39.708Z,101938.94
2022-08-29T12:37:34.116Z,101938.72
2022-08-29T12:40:32.770Z,101942.28
2022-08-29T12:43:29.430Z,101931.56
2022-08-29T12:46:00.459Z,101929.25
2022-08-29T12:48:30.937Z,101934.56
2022-08-29T12:51:00.919Z,101927.28
2022-08-29T12:53:33.409Z,101930.97
2022-08-29T12:56:02.836Z,101932.91
2022-08-29T12:58:39.662Z,101924.00
2022-08-29T13:01:21.462Z,101932.56
2022-08-29T13:04:01.001Z,101936.00
2022-08-29T13:06:29.235Z,101944.31
2022-08-29T13:08:57.408Z,101937.66
2022-08-29T13:11:27.800Z,101933.59
2022-08-29T13:14:06.629Z,101930.56
2022-08-29T13:16:36.208Z,101925.22
2022-08-29T13:19:12.011Z,101922.88
2022-08-29T13:21:40.189Z,101922.47
2022-08-29T13:24:12.747Z,101918.69
2022-08-29T13:26:50.645Z,101921.03
2022-08-29T13:29:36.553Z,101924.44
2022-08-29T13:32:20.387Z,101913.44
2022-08-29T13:35:06.256Z,101924.59
2022-08-29T13:37:37.283Z,101921.75
2022-08-29T13:40:31.462Z,101915.91
2022-08-29T13:43:00.977Z,101915.00
2022-08-29T13:45:29.382Z,101908.44
2022-08-29T13:48:10.455Z,101910.72
2022-08-29T13:50:38.533Z,101906.47
2022-08-29T13:53:07.138Z,101908.34
2022-08-29T13:55:35.390Z,101906.72
2022-08-29T13:58:03.729Z,101901.88
2022-08-29T14:00:34.998Z,101897.84
2022-08-29T14:03:09.320Z,101897.53
2022-08-29T14:05:39.368Z,101904.00
2022-08-29T14:08:07.817Z,101900.03
2022-08-29T14:10:36.527Z,101890.63
2022-08-29T14:13:04.939Z,101899.34
2022-08-29T14:15:36.271Z,101902.84
2022-08-29T14:18:06.140Z,101901.53
2022-08-29T14:20:39.086Z,101901.38
2022-08-29T14:23:07.587Z,101883.25
2022-08-29T14:25:35.627Z,101883.25
2022-08-29T14:28:03.936Z,101890.44
2022-08-29T14:30:32.049Z,101882.69
2022-08-29T14:33:00.114Z,101884.19
2022-08-29T14:35:32.784Z,101885.09
2022-08-29T14:38:03.679Z,101879.44
2022-08-29T14:40:34.053Z,101878.00
2022-08-29T14:43:03.332Z,101884.69
2022-08-29T14:45:33.049Z,101885.03
2022-08-29T14:48:03.403Z,101879.75
2022-08-29T14:50:35.123Z,101875.72
2022-08-29T14:53:07.481Z,101871.59
2022-08-29T14:55:38.697Z,101876.66
2022-08-29T14:58:09.455Z,101881.25
2022-08-29T15:00:51.513Z,101892.59
2022-08-29T15:03:22.581Z,101884.47
2022-08-29T15:05:52.121Z,101875.84
2022-08-29T15:08:20.545Z,101878.97
2022-08-29T15:10:48.784Z,101888.06
2022-08-29T15:13:19.129Z,101881.63
2022-08-29T15:15:49.187Z,101885.28
2022-08-29T15:19:00.707Z,101879.91
2022-08-29T15:21:16.880Z,101896.00
2022-08-29T15:23:49.008Z,101881.75
2022-08-29T15:26:17.183Z,101882.47
2022-08-29T15:28:45.238Z,101886.63
2022-08-29T15:31:16.285Z,101883.88
2022-08-29T15:33:47.601Z,101868.31
2022-08-29T15:36:17.089Z,101875.66
2022-08-29T15:38:45.294Z,101885.72
2022-08-29T15:41:19.293Z,101888.69
2022-08-29T15:43:47.399Z,101879.47
2022-08-29T15:46:15.462Z,101877.88
2022-08-29T15:48:46.159Z,101880.69
2022-08-29T15:51:14.284Z,101875.53
2022-08-29T15:53:48.149Z,101869.25
2022-08-29T15:56:23.187Z,101875.72
2022-08-29T15:58:53.697Z,101882.09
2022-08-29T16:01:22.681Z,101877.06
2022-08-29T16:03:52.319Z,101873.69
2022-08-29T16:06:20.481Z,101873.72
2022-08-29T16:08:55.221Z,101885.50
2022-08-29T16:11:23.722Z,101878.31
2022-08-29T16:14:08.307Z,101882.22
2022-08-29T16:16:41.538Z,101882.78
2022-08-29T16:19:10.020Z,101880.25
2022-08-29T16:21:38.700Z,101884.06
2022-08-29T16:24:08.769Z,101884.78
2022-08-29T16:26:37.043Z,101878.81
2022-08-29T16:29:09.228Z,101874.56
2022-08-29T16:31:38.061Z,101874.06
2022-08-29T16:34:06.252Z,101877.19
2022-08-29T16:36:34.938Z,101885.66
2022-08-29T16:39:05.193Z,101885.19
2022-08-29T16:41:34.841Z,101888.91
2022-08-29T16:44:03.045Z,101882.91
2022-08-29T16:46:31.923Z,101883.53
2022-08-29T16:49:00.610Z,101881.50
2022-08-29T16:51:29.472Z,101881.88
2022-08-29T16:54:00.140Z,101895.16
2022-08-29T16:56:29.420Z,101891.81
2022-08-29T16:59:01.866Z,101893.75
2022-08-29T17:01:32.958Z,101880.97
2022-08-29T17:04:02.599Z,101889.88
2022-08-29T17:06:31.121Z,101890.97
2022-08-29T17:08:58.768Z,101894.94
2022-08-29T17:11:26.145Z,101894.47
2022-08-29T17:13:55.579Z,101889.13
2022-08-29T17:16:24.171Z,101893.09
2022-08-29T17:18:52.431Z,101893.00
2022-08-29T17:21:20.835Z,101886.31
2022-08-29T17:23:50.043Z,101881.19
2022-08-29T17:26:20.865Z,101886.38
2022-08-29T17:28:49.177Z,101894.06
2022-08-29T17:31:17.841Z,101897.75
2022-08-29T17:33:47.635Z,101900.00
2022-08-29T17:36:16.360Z,101892.00
2022-08-29T17:38:47.743Z,101898.19
2022-08-29T17:41:19.345Z,101904.28
2022-08-29T17:43:49.418Z,101898.19
2022-08-29T17:46:19.733Z,101909.56
2022-08-29T17:48:49.462Z,101907.38
2022-08-29T17:51:19.123Z,101908.59
2022-08-29T17:53:47.767Z,101906.44
2022-08-29T17:56:21.046Z,101904.78
2022-08-29T17:58:49.365Z,101902.63
2022-08-29T18:01:17.815Z,101905.03
2022-08-29T18:03:53.101Z,101907.06
2022-08-29T18:06:33.656Z,101899.56
2022-08-29T18:09:15.347Z,101901.47
2022-08-29T18:11:45.317Z,101899.41
2022-08-29T18:14:13.547Z,101903.63
2022-08-29T18:16:41.625Z,101914.63
2022-08-29T18:19:09.873Z,101911.00
2022-08-29T18:21:41.086Z,101910.03
2022-08-29T18:24:16.003Z,101911.09
2022-08-29T18:26:46.100Z,101910.19
2022-08-29T18:29:14.403Z,101910.88
2022-08-29T18:31:43.408Z,101931.38
2022-08-29T18:34:11.861Z,101935.19
2022-08-29T18:36:43.768Z,101941.16
2022-08-29T18:39:13.081Z,101936.09
2022-08-29T18:41:41.655Z,101936.13
2022-08-29T18:44:10.180Z,101948.38
2022-08-29T18:46:40.974Z,101950.22
2022-08-29T18:49:09.039Z,101949.63
2022-08-29T18:51:41.209Z,101946.41
2022-08-29T18:54:10.664Z,101952.91
2022-08-29T18:56:39.268Z,101950.16
2022-08-29T18:59:07.308Z,101954.25
2022-08-29T19:01:36.449Z,101949.50
2022-08-29T19:04:04.612Z,101946.56
2022-08-29T19:06:32.663Z,101943.16
2022-08-29T19:09:02.115Z,101939.22
2022-08-29T19:11:30.117Z,101944.56
2022-08-29T19:13:58.314Z,101947.53
2022-08-29T19:16:26.649Z,101950.59
2022-08-29T19:18:54.704Z,101946.13
2022-08-29T19:21:21.676Z,101954.72
2022-08-29T19:23:52.714Z,101952.31
2022-08-29T19:26:24.576Z,101951.13
2022-08-29T19:28:56.648Z,101954.72
2022-08-29T19:31:27.674Z,101954.00
2022-08-29T19:33:56.061Z,101941.47
2022-08-29T19:36:24.863Z,101955.56
2022-08-29T19:38:53.081Z,101952.44
2022-08-29T19:41:22.603Z,101945.91
2022-08-29T19:43:53.144Z,101944.03
2022-08-29T19:46:23.163Z,101948.94
2022-08-29T19:48:52.473Z,101942.28
2022-08-29T19:51:25.051Z,101951.72
2022-08-29T19:53:53.811Z,101944.06
2022-08-29T19:56:23.251Z,101951.47
2022-08-29T19:58:51.319Z,101958.53
2022-08-29T20:01:19.443Z,101957.47
2022-08-29T20:03:47.669Z,101965.78
2022-08-29T20:06:17.205Z,101967.44
2022-08-29T20:08:46.912Z,101969.75
2022-08-29T20:11:18.251Z,101962.81
2022-08-29T20:13:50.457Z,101962.06
2022-08-29T20:16:21.514Z,101967.09
2022-08-29T20:18:50.304Z,101968.84
2022-08-29T20:21:19.323Z,101968.16
2022-08-29T20:23:49.448Z,101966.28
2022-08-29T20:26:19.624Z,101968.41
2022-08-29T20:28:50.825Z,101972.19
2022-08-29T20:31:19.403Z,101975.03
2022-08-29T20:33:48.356Z,101974.31
2022-08-29T20:36:38.784Z,101982.91
2022-08-29T20:39:08.087Z,101975.78
2022-08-29T20:41:36.095Z,101987.94
2022-08-29T20:44:09.780Z,101979.78
2022-08-29T20:46:40.728Z,101982.78
2022-08-29T20:49:09.207Z,101989.94
2022-08-29T20:51:37.567Z,101983.59
2022-08-29T20:54:06.273Z,101977.41
2022-08-29T20:56:34.240Z,101982.72
2022-08-29T20:59:02.192Z,101986.47
2022-08-29T21:01:31.819Z,102002.69
2022-08-29T21:04:20.877Z,102000.72
2022-08-29T21:06:49.556Z,101997.94
2022-08-29T21:09:17.501Z,101996.56
2022-08-29T21:11:45.646Z,101991.53
2022-08-29T21:14:14.065Z,102000.28
2022-08-29T21:16:43.567Z,102003.22
2022-08-29T21:19:12.332Z,102004.69
2022-08-29T21:21:41.579Z,102003.34
2022-08-29T21:24:10.488Z,102006.91
2022-08-29T21:26:38.856Z,102003.00
2022-08-29T21:29:07.695Z,102000.47
2022-08-29T21:31:36.187Z,101997.34
2022-08-29T21:34:07.277Z,102005.69
2022-08-29T21:36:36.948Z,102004.94
2022-08-29T21:39:07.333Z,102004.72
2022-08-29T21:41:38.599Z,102001.19
2022-08-29T21:44:06.933Z,102003.06
2022-08-29T21:46:36.674Z,102001.19
2022-08-29T21:49:07.131Z,102011.22
2022-08-29T21:51:35.902Z,102004.00
2022-08-29T21:54:04.174Z,102002.16
2022-08-29T21:56:33.498Z,102003.03
2022-08-29T21:59:02.104Z,102005.63
2022-08-29T22:01:33.048Z,102007.06
2022-08-29T22:04:02.820Z,102005.03
2022-08-29T22:06:33.771Z,102007.78
2022-08-29T22:09:01.747Z,102005.00
2022-08-29T22:11:37.696Z,102003.00
2022-08-29T22:14:06.231Z,102005.91
2022-08-29T22:16:33.494Z,102002.72
2022-08-29T22:19:03.191Z,101999.09
2022-08-29T22:21:34.870Z,102002.56
2022-08-29T22:24:03.632Z,101998.69
2022-08-29T22:26:32.027Z,101991.91
2022-08-29T22:29:00.028Z,102002.44
2022-08-29T22:31:29.114Z,102004.16
2022-08-29T22:33:57.121Z,101995.38
2022-08-29T22:36:25.110Z,102000.00
2022-08-29T22:38:56.482Z,102001.81
2022-08-29T22:41:25.438Z,102003.56
2022-08-29T22:44:16.552Z,102000.31
2022-08-29T22:46:43.694Z,101997.91
2022-08-29T22:49:11.864Z,102007.06
2022-08-29T22:51:39.809Z,102008.03
2022-08-29T22:54:26.870Z,101998.19
2022-08-29T22:56:54.850Z,101999.16
2022-08-29T22:59:23.251Z,102002.94
2022-08-29T23:01:51.411Z,101988.28
2022-08-29T23:04:19.421Z,102001.81
2022-08-29T23:06:47.563Z,101994.34
2022-08-29T23:09:17.337Z,101998.63
2022-08-29T23:11:45.396Z,102001.19
2022-08-29T23:14:14.080Z,101997.59
2022-08-29T23:16:43.254Z,101998.34
2022-08-29T23:19:14.485Z,102005.25
2022-08-29T23:21:44.435Z,102004.53
2022-08-29T23:24:12.583Z,102004.00
2022-08-29T23:26:42.880Z,102009.06
2022-08-29T23:29:10.895Z,102002.31
2022-08-29T23:31:38.945Z,102003.28
2022-08-29T23:34:07.293Z,102008.56
2022-08-29T23:36:35.663Z,102004.84
2022-08-29T23:39:05.828Z,102010.06
2022-08-29T23:41:34.308Z,102001.84
2022-08-29T23:44:04.111Z,101995.91
2022-08-29T23:46:33.204Z,102004.53
2022-08-29T23:49:01.309Z,102001.13
2022-08-29T23:51:29.673Z,102001.81
2022-08-29T23:53:58.221Z,102004.44
2022-08-29T23:56:26.986Z,102003.69
2022-08-29T23:58:56.441Z,102003.97
